Time;durP1;ratioP1;P1;durP2;ratioP2;P2;SDS_P1;SDS_P2;PMS_P1;PMS_P2;Temp;Humidity;BMP_temperature;BMP_pressure;BME280_temperature;BME280_humidity;BME280_pressure;Samples;Min_cycle;Max_cycle;Signal;HPM_P1;HPM_P2
2022/04/22 00:03:44;;;;;;;19.25;11.65;;;;;;;9.52;84.91;99329.88;21022269;28;20040;-83
2022/04/22 00:13:45;;;;;;;18.77;10.75;;;;;;;9.42;85.25;99325.81;21002780;28;20093;-82
2022/04/22 00:23:49;;;;;;;20.95;11.85;;;;;;;9.28;86.33;99321.88;21011331;28;20792;-82
2022/04/22 00:33:50;;;;;;;19.50;11.43;;;;;;;9.19;86.48;99321.22;21038854;28;20040;-83
2022/04/22 00:43:53;;;;;;;20.50;12.23;;;;;;;9.08;87.11;99314.59;21026676;28;20044;-82
2022/04/22 00:53:54;;;;;;;21.52;12.85;;;;;;;8.86;88.83;99298.63;21016038;28;20089;-82
2022/04/22 01:14:16;;;;;;;24.25;13.70;;;;;;;8.69;90.20;99312.13;21089055;28;20051;-82
2022/04/22 01:24:18;;;;;;;24.70;14.07;;;;;;;8.55;91.62;99295.97;21082953;28;20056;-82
2022/04/22 01:34:19;;;;;;;25.13;14.10;;;;;;;8.37;92.51;99282.47;21073278;28;20055;-82
2022/04/22 01:44:21;;;;;;;23.88;13.90;;;;;;;8.25;93.34;99264.50;21082356;28;20521;-82
2022/04/22 01:54:23;;;;;;;24.10;14.52;;;;;;;8.14;94.20;99266.50;21142028;28;20028;-82
2022/04/22 02:04:24;;;;;;;27.85;17.48;;;;;;;8.07;94.68;99259.72;21127507;28;20479;-82
2022/04/22 02:14:26;;;;;;;26.10;15.43;;;;;;;7.82;94.84;99249.88;21103979;28;20447;-82
2022/04/22 02:24:27;;;;;;;22.73;14.00;;;;;;;7.73;95.28;99239.66;21085828;28;20104;-82
2022/04/22 02:34:29;;;;;;;21.75;12.38;;;;;;;7.38;96.79;99233.50;21082782;28;20086;-82
2022/04/22 02:54:50;;;;;;;25.73;15.20;;;;;;;7.00;99.02;99230.84;21099549;28;20044;-82
2022/04/22 03:04:53;;;;;;;27.13;13.77;;;;;;;6.76;100.00;99227.81;21113098;28;20051;-82
2022/04/22 03:14:56;;;;;;;26.58;14.73;;;;;;;6.51;100.00;99226.53;21089622;28;20056;-82
2022/04/22 03:24:57;;;;;;;24.05;13.98;;;;;;;6.49;100.00;99213.56;21087897;28;20059;-82
2022/04/22 03:34:59;;;;;;;25.15;14.73;;;;;;;6.37;100.00;99206.88;21080997;28;20458;-82
2022/04/22 03:45:00;;;;;;;25.13;15.18;;;;;;;6.32;100.00;99206.06;21074001;28;20044;-82
2022/04/22 03:55:02;;;;;;;27.45;15.48;;;;;;;6.12;100.00;99201.22;21088304;28;20441;-82
2022/04/22 04:05:03;;;;;;;33.03;16.85;;;;;;;6.12;100.00;99202.97;21085843;28;20088;-82
2022/04/22 04:25:26;;;;;;;31.52;17.80;;;;;;;6.06;100.00;99188.34;21105365;22;20047;-73
2022/04/22 04:35:28;;;;;;;31.52;17.65;;;;;;;6.04;100.00;99189.25;21080318;22;20153;-68
2022/04/22 04:45:29;;;;;;;35.83;19.05;;;;;;;6.07;100.00;99202.19;21070413;28;20473;-68
2022/04/22 04:55:31;;;;;;;37.28;20.55;;;;;;;6.12;100.00;99205.56;21018380;28;20062;-67
2022/04/22 05:05:33;;;;;;;39.15;20.85;;;;;;;6.32;100.00;99213.88;21011622;28;20500;-65
2022/04/22 05:15:35;;;;;;;38.25;19.98;;;;;;;6.45;100.00;99213.66;21016788;28;20041;-65
2022/04/22 05:25:36;;;;;;;44.55;22.85;;;;;;;6.50;100.00;99210.09;21032865;28;20105;-65
2022/04/22 05:35:38;;;;;;;40.97;21.20;;;;;;;6.93;100.00;99219.69;21027821;28;20097;-64
2022/04/22 05:45:39;;;;;;;41.15;21.52;;;;;;;7.23;100.00;99218.19;21028312;28;20048;-66
2022/04/22 05:55:42;;;;;;;41.90;22.38;;;;;;;7.21;100.00;99201.75;21029819;28;20498;-66
2022/04/22 06:05:43;;;;;;;40.17;22.15;;;;;;;7.37;100.00;99202.25;21029664;28;20040;-65
2022/04/22 06:15:45;;;;;;;38.33;21.73;;;;;;;7.56;100.00;99200.09;21022699;28;20036;-65
2022/04/22 06:25:48;;;;;;;40.80;22.33;;;;;;;7.74;99.92;99196.22;21023911;28;20098;-65
2022/04/22 06:35:49;;;;;;;40.50;23.77;;;;;;;8.05;98.02;99183.31;21030819;28;20496;-64
2022/04/22 06:45:51;;;;;;;40.15;22.65;;;;;;;8.37;95.66;99180.75;21020801;28;20072;-64
2022/04/22 06:55:58;;;;;;;39.97;21.55;;;;;;;8.32;95.93;99169.56;21020136;28;20044;-65
2022/04/22 07:05:59;;;;;;;37.10;21.60;;;;;;;8.89;92.97;99173.28;21024300;28;20052;-65
2022/04/22 07:16:02;;;;;;;39.55;22.33;;;;;;;9.30;89.12;99158.16;21017867;28;20464;-65
2022/04/22 07:26:09;;;;;;;37.88;21.95;;;;;;;9.77;85.61;99161.88;21022931;28;20131;-65
2022/04/22 07:36:11;;;;;;;34.00;20.80;;;;;;;10.16;82.30;99161.47;21017802;28;20048;-65
2022/04/22 07:56:33;;;;;;;32.10;20.35;;;;;;;10.30;82.38;99142.69;21014761;28;20051;-65
2022/04/22 08:06:34;;;;;;;34.17;20.20;;;;;;;10.84;78.67;99125.94;21011209;28;20041;-66
2022/04/22 08:16:36;;;;;;;27.15;18.10;;;;;;;11.02;76.02;99128.72;21019235;28;20045;-65
2022/04/22 08:26:39;;;;;;;26.38;17.55;;;;;;;11.35;74.16;99123.09;21016626;28;20566;-66
2022/04/22 08:36:40;;;;;;;28.23;17.65;;;;;;;11.71;73.88;99112.06;21011673;28;20089;-65
2022/04/22 08:57:03;;;;;;;29.90;17.95;;;;;;;12.18;70.92;99085.63;21016315;28;20049;-67
2022/04/22 09:07:05;;;;;;;26.30;16.58;;;;;;;12.33;68.86;99079.72;21012272;28;20083;-67
2022/04/22 09:17:07;;;;;;;20.40;13.90;;;;;;;13.02;62.70;99066.91;21010952;28;20044;-68
2022/04/22 09:27:08;;;;;;;21.98;13.48;;;;;;;13.68;60.47;99068.16;21009256;28;20044;-70
2022/04/22 09:47:38;;;;;;;22.65;16.23;;;;;;;13.94;58.75;99036.16;21011923;28;20481;-68
2022/04/22 09:57:52;;;;;;;24.45;16.90;;;;;;;14.07;59.34;99033.72;21006200;28;20106;-68
2022/04/22 10:07:56;;;;;;;30.63;19.97;;;;;;;14.24;58.92;99009.16;21020147;28;20102;-69
2022/04/22 10:17:57;;;;;;;23.23;14.63;;;;;;;14.37;58.55;99003.16;21028683;28;21147;-68
2022/04/22 10:28:03;;;;;;;20.42;14.38;;;;;;;14.66;58.11;98995.50;21026303;28;20040;-69
2022/04/22 10:38:04;;;;;;;21.95;14.57;;;;;;;14.86;55.82;98986.50;21029033;28;20064;-69
2022/04/22 10:48:26;;;;;;;20.45;14.25;;;;;;;14.63;55.69;98980.69;21018789;28;20052;-69
2022/04/22 10:58:29;;;;;;;21.55;13.52;;;;;;;14.88;55.00;98967.00;21024899;28;20057;-70
2022/04/22 11:08:41;;;;;;;20.02;12.85;;;;;;;15.13;53.83;98948.00;21016057;28;20047;-69
2022/04/22 11:18:44;;;;;;;16.33;11.65;;;;;;;15.48;54.28;98939.84;21009347;28;20502;-68
2022/04/22 11:28:46;;;;;;;15.65;11.50;;;;;;;15.76;52.45;98925.88;21018227;28;20055;-67
2022/04/22 11:38:52;;;;;;;16.15;10.68;;;;;;;16.20;52.05;98924.09;21015602;28;20315;-68
2022/04/22 11:48:54;;;;;;;16.10;10.93;;;;;;;16.17;50.20;98920.69;21011449;28;20051;-67
2022/04/22 11:58:56;;;;;;;11.98;8.63;;;;;;;16.52;50.64;98909.69;21018732;28;20052;-67
2022/04/22 12:09:01;;;;;;;17.40;10.85;;;;;;;16.34;48.80;98914.38;21017428;28;20063;-67
2022/04/22 12:19:03;;;;;;;12.93;9.43;;;;;;;16.78;47.92;98904.56;21013747;28;20040;-67
2022/04/22 12:29:12;;;;;;;12.00;8.75;;;;;;;17.11;46.57;98893.56;21010553;28;20509;-68
2022/04/22 12:39:44;;;;;;;13.38;8.65;;;;;;;17.15;47.99;98871.22;21015667;28;20036;-66
2022/04/22 13:00:19;;;;;;;16.27;8.55;;;;;;;17.56;46.61;98860.50;21005480;28;19982;-65
2022/04/22 13:10:41;;;;;;;11.67;7.53;;;;;;;17.89;43.92;98851.19;21008585;28;20127;-65
2022/04/22 13:20:44;;;;;;;14.50;7.07;;;;;;;17.88;43.18;98849.50;21016026;28;20059;-65
2022/04/22 13:30:46;;;;;;;11.32;7.03;;;;;;;17.70;44.33;98848.94;21013040;28;20044;-65
2022/04/22 13:40:47;;;;;;;16.50;7.57;;;;;;;17.77;44.86;98841.44;21019156;28;20048;-65
2022/04/22 14:01:09;;;;;;;10.13;7.75;;;;;;;18.01;45.70;98839.72;21030299;28;20036;-66
2022/04/22 14:11:10;;;;;;;10.95;8.02;;;;;;;18.34;43.03;98827.66;21007608;28;20059;-67
2022/04/22 14:21:12;;;;;;;8.88;6.40;;;;;;;18.50;44.06;98820.28;21003749;28;20055;-67
2022/04/22 14:31:18;;;;;;;9.18;6.18;;;;;;;18.78;42.29;98807.66;20998475;28;20048;-67
2022/04/22 14:41:20;;;;;;;11.50;6.45;;;;;;;18.78;41.45;98818.25;20995237;28;20139;-66
2022/04/22 14:51:21;;;;;;;8.73;5.75;;;;;;;18.72;41.43;98819.56;21014930;28;20077;-65
2022/04/22 15:01:23;;;;;;;9.98;7.30;;;;;;;18.82;39.31;98817.06;21021164;28;20040;-65
2022/04/22 15:11:25;;;;;;;10.60;6.30;;;;;;;18.64;41.81;98827.22;21017324;28;20048;-65
2022/04/22 15:31:47;;;;;;;12.10;7.22;;;;;;;19.17;40.03;98815.28;21008728;28;20488;-66
2022/04/22 15:41:53;;;;;;;12.25;6.95;;;;;;;18.96;39.59;98811.56;21017953;28;20062;-65
2022/04/22 15:51:55;;;;;;;9.98;6.40;;;;;;;19.47;38.88;98805.91;21020189;28;20058;-65
2022/04/22 16:01:57;;;;;;;10.35;6.28;;;;;;;19.39;37.73;98792.38;21013022;28;20166;-65
2022/04/22 16:22:20;;;;;;;8.77;5.18;;;;;;;18.79;40.21;98798.75;21017387;28;20055;-66
2022/04/22 16:32:22;;;;;;;12.50;6.30;;;;;;;18.90;38.81;98796.97;21015837;28;20110;-65
2022/04/22 16:42:24;;;;;;;11.52;5.90;;;;;;;19.07;37.35;98800.16;21010038;28;20403;-65
2022/04/22 16:52:26;;;;;;;12.20;6.53;;;;;;;19.17;37.55;98793.19;21009217;28;20109;-67
2022/04/22 17:02:28;;;;;;;7.53;4.70;;;;;;;18.98;38.60;98807.03;21015284;28;20052;-65
2022/04/22 17:12:30;;;;;;;7.80;4.97;;;;;;;18.63;38.64;98802.50;21016215;28;20082;-65
2022/04/22 17:22:40;;;;;;;7.78;5.22;;;;;;;18.64;39.00;98806.88;21026921;28;20110;-65
2022/04/22 17:32:42;;;;;;;9.80;5.80;;;;;;;18.47;39.97;98812.56;21025603;28;20052;-65
2022/04/22 17:42:44;;;;;;;12.38;5.88;;;;;;;18.26;39.75;98817.63;21030539;28;20048;-65
2022/04/22 17:52:46;;;;;;;11.45;5.85;;;;;;;17.97;42.59;98824.19;21021395;28;20127;-66
2022/04/22 18:02:48;;;;;;;9.32;6.50;;;;;;;17.68;42.35;98827.91;21022348;28;20056;-66
2022/04/22 18:12:49;;;;;;;10.65;6.22;;;;;;;17.21;44.10;98838.25;21026259;28;20052;-67
2022/04/22 18:22:52;;;;;;;17.02;6.00;;;;;;;17.00;44.14;98836.09;21022494;28;20052;-66
2022/04/22 18:32:53;;;;;;;8.55;5.22;;;;;;;16.52;45.58;98841.00;21016187;28;20048;-66
2022/04/22 18:42:57;;;;;;;10.88;5.80;;;;;;;16.47;45.77;98853.66;21022992;28;20052;-66
2022/04/22 18:53:01;;;;;;;9.03;5.30;;;;;;;16.14;46.72;98852.25;21023626;28;20504;-66
2022/04/22 19:03:12;;;;;;;9.55;5.97;;;;;;;15.97;47.18;98864.81;21020910;28;20075;-65
2022/04/22 19:13:13;;;;;;;11.18;7.10;;;;;;;15.73;48.21;98880.34;21010496;28;20101;-66
2022/04/22 19:23:15;;;;;;;8.57;5.35;;;;;;;15.62;48.84;98886.25;21024340;28;20044;-65
2022/04/22 19:33:17;;;;;;;11.40;5.88;;;;;;;15.55;48.87;98891.03;21015885;28;20040;-66
2022/04/22 19:43:28;;;;;;;13.93;6.22;;;;;;;15.42;49.74;98899.78;21013872;28;20454;-66
2022/04/22 19:53:30;;;;;;;13.30;6.47;;;;;;;15.20;50.75;98908.13;21012472;28;20075;-66
2022/04/22 20:03:32;;;;;;;10.35;6.22;;;;;;;14.92;51.72;98917.63;21021071;28;20051;-65
2022/04/22 20:13:33;;;;;;;9.13;6.43;;;;;;;14.87;51.54;98923.16;21012554;28;20480;-66
2022/04/22 20:23:35;;;;;;;13.02;6.05;;;;;;;14.63;52.25;98928.00;21013074;28;20045;-66
2022/04/22 20:33:37;;;;;;;9.63;6.55;;;;;;;14.43;53.30;98951.09;21011650;28;20516;-65
2022/04/22 20:43:38;;;;;;;12.20;6.82;;;;;;;14.27;54.02;98956.31;21018181;28;20044;-66
2022/04/22 20:53:49;;;;;;;11.95;8.10;;;;;;;14.08;54.63;98959.09;21009387;28;20036;-66
2022/04/22 21:03:51;;;;;;;10.13;7.22;;;;;;;13.85;55.80;98968.22;21007140;28;20154;-65
2022/04/22 21:13:52;;;;;;;12.20;9.00;;;;;;;13.90;56.00;98978.50;21009011;28;20048;-65
2022/04/22 21:23:54;;;;;;;14.18;10.02;;;;;;;13.86;55.01;98988.31;21000669;28;20063;-65
2022/04/22 21:33:55;;;;;;;16.25;11.60;;;;;;;13.71;55.69;98989.97;21003605;28;20497;-65
2022/04/22 21:43:57;;;;;;;17.80;11.80;;;;;;;13.51;56.70;99000.63;21013112;28;20056;-65
2022/04/22 21:53:58;;;;;;;18.15;12.27;;;;;;;13.35;57.18;98995.28;21009265;28;20515;-69
2022/04/22 22:04:00;;;;;;;17.88;12.57;;;;;;;13.27;57.56;99000.06;21022054;28;20412;-67
2022/04/22 22:14:01;;;;;;;18.88;13.32;;;;;;;13.14;58.57;99009.47;21023685;28;20048;-66
2022/04/22 22:24:03;;;;;;;19.20;13.20;;;;;;;13.06;58.89;99012.44;21031651;28;20051;-67
2022/04/22 22:34:06;;;;;;;21.33;14.80;;;;;;;12.84;59.70;99002.13;21019595;28;20508;-66
2022/04/22 22:44:09;;;;;;;22.45;14.68;;;;;;;12.67;60.92;99009.94;21023046;28;20048;-68
2022/04/22 22:54:11;;;;;;;24.27;15.60;;;;;;;12.40;62.57;99009.41;21025728;28;20511;-67
2022/04/22 23:04:13;;;;;;;23.13;15.88;;;;;;;12.30;62.74;99006.34;21023069;28;20044;-64
2022/04/22 23:14:15;;;;;;;25.10;16.60;;;;;;;12.12;64.52;99012.41;21018766;28;20098;-64
2022/04/22 23:24:16;;;;;;;24.55;16.88;;;;;;;11.96;65.23;99018.34;21022835;28;20052;-64
2022/04/22 23:34:18;;;;;;;23.63;16.63;;;;;;;11.81;66.38;99018.97;21024145;28;20040;-64
2022/04/22 23:44:19;;;;;;;26.48;17.08;;;;;;;11.76;66.95;99010.44;21016163;28;20044;-64
2022/04/22 23:54:21;;;;;;;26.70;17.73;;;;;;;11.56;67.86;99006.06;21018093;28;20412;-65
